Vila Rica, Brazil
Current Conditions -  °F | °C
As of 3:00 PM on Sunday 23 Nov 2014 (Local Time) from SBPJ Reporting Station
Light Rain Light Rain  
Wind Chill: 77°   Ceiling: 7000
Heat Index: 78°   Visibility: 6mi
Dew Point: 73°   Wind: 2mph
Humidity: 89%   Direction: 70°ENE
Pressure: 29.88"   Gusts: NA
Location:  10.01°S, 51.12°W
Report Text: SBPJ 231800Z 07002KT 9999 -RA FEW007 SCT015 FEW030TCU OVC070 25/23 Q1012
Loading
Personal Weather Stations






























Interactive Weather Map New forecast layout! Learn more

10-Day Weather Forecast

Advertisements
Track Severe Weather on mobile